createdAt,value
2018-11-26T00:00:32.225Z,4.50
2018-11-26T00:03:00.426Z,4.40
2018-11-26T00:05:28.701Z,4.30
2018-11-26T00:07:56.878Z,4.30
2018-11-26T00:10:36.278Z,4.20
2018-11-26T00:13:04.768Z,4.10
2018-11-26T00:15:33.038Z,4.00
2018-11-26T00:18:01.224Z,4.00
2018-11-26T00:20:29.487Z,3.80
2018-11-26T00:22:57.710Z,3.70
2018-11-26T00:25:25.942Z,3.70
2018-11-26T00:27:54.140Z,3.60
2018-11-26T00:30:22.354Z,3.50
2018-11-26T00:32:50.683Z,3.30
2018-11-26T00:35:18.848Z,3.30
2018-11-26T00:37:47.114Z,3.20
2018-11-26T00:40:15.356Z,3.10
2018-11-26T00:42:43.630Z,3.10
2018-11-26T00:45:12.117Z,3.00
2018-11-26T00:47:40.293Z,3.00
2018-11-26T00:50:09.489Z,3.00
2018-11-26T00:52:38.128Z,2.90
2018-11-26T00:55:07.748Z,2.90
2018-11-26T00:57:36.000Z,2.90
2018-11-26T01:00:05.138Z,2.90
2018-11-26T01:02:33.463Z,2.80
2018-11-26T01:05:01.773Z,2.70
2018-11-26T01:07:30.566Z,2.70
2018-11-26T01:09:58.876Z,2.60
2018-11-26T01:12:27.196Z,2.60
2018-11-26T01:14:56.612Z,2.50
2018-11-26T01:17:24.952Z,2.40
2018-11-26T01:19:53.279Z,2.30
2018-11-26T01:22:21.537Z,2.30
2018-11-26T01:24:49.758Z,2.20
2018-11-26T01:27:18.092Z,2.20
2018-11-26T01:29:46.435Z,2.10
2018-11-26T01:32:14.687Z,2.10
2018-11-26T01:34:43.192Z,2.10
2018-11-26T01:37:11.521Z,2.00
2018-11-26T01:39:39.767Z,2.00
2018-11-26T01:42:08.045Z,1.90
2018-11-26T01:44:36.339Z,1.90
2018-11-26T01:47:04.609Z,1.90
2018-11-26T01:49:32.922Z,1.90
2018-11-26T01:52:01.262Z,1.80
2018-11-26T01:54:29.534Z,1.80
2018-11-26T01:56:57.790Z,1.70
2018-11-26T01:59:26.009Z,1.70
2018-11-26T02:01:54.301Z,1.70
2018-11-26T02:04:22.509Z,1.70
2018-11-26T02:06:50.772Z,1.60
2018-11-26T02:09:18.966Z,1.50
2018-11-26T02:11:47.173Z,1.50
2018-11-26T02:14:15.491Z,1.40
2018-11-26T02:16:43.689Z,1.40
2018-11-26T02:19:12.001Z,1.40
2018-11-26T02:21:40.235Z,1.40
2018-11-26T02:24:08.576Z,1.30
2018-11-26T02:26:36.760Z,1.40
2018-11-26T02:29:05.183Z,1.50
2018-11-26T02:31:33.409Z,1.60
2018-11-26T02:34:01.763Z,1.70
2018-11-26T02:36:29.933Z,1.70
2018-11-26T02:38:58.174Z,1.70
2018-11-26T02:41:26.375Z,1.70
2018-11-26T02:43:54.587Z,1.90
2018-11-26T02:46:22.826Z,1.90
2018-11-26T02:48:51.114Z,2.00
2018-11-26T02:51:19.313Z,2.00
2018-11-26T02:53:47.538Z,2.00
2018-11-26T02:56:15.729Z,2.10
2018-11-26T02:58:43.969Z,2.20
2018-11-26T03:01:12.232Z,2.30
2018-11-26T03:03:40.479Z,2.30
2018-11-26T03:06:08.767Z,2.30
2018-11-26T03:08:37.035Z,2.30
2018-11-26T03:11:05.702Z,2.30
2018-11-26T03:13:33.945Z,2.20
2018-11-26T03:16:02.166Z,2.30
2018-11-26T03:18:30.393Z,2.30
2018-11-26T03:20:58.649Z,2.30
2018-11-26T03:23:26.942Z,2.30
2018-11-26T03:25:55.276Z,2.30
2018-11-26T03:28:23.802Z,2.30
2018-11-26T03:30:52.032Z,2.40
2018-11-26T03:33:20.283Z,2.40
2018-11-26T03:35:48.497Z,2.50
2018-11-26T03:38:21.972Z,2.50
2018-11-26T03:40:50.201Z,2.50
2018-11-26T03:43:18.448Z,2.50
2018-11-26T03:45:46.708Z,2.40
2018-11-26T03:48:14.934Z,2.40
2018-11-26T03:50:43.142Z,2.40
2018-11-26T03:53:11.384Z,2.40
2018-11-26T03:55:39.597Z,2.30
2018-11-26T03:58:07.832Z,2.30
2018-11-26T04:00:36.038Z,2.20
2018-11-26T04:03:04.253Z,2.30
2018-11-26T04:05:32.480Z,2.20
2018-11-26T04:08:00.732Z,2.20
2018-11-26T04:10:28.938Z,2.10
2018-11-26T04:12:57.153Z,2.10
2018-11-26T04:15:25.390Z,2.10
2018-11-26T04:17:53.674Z,2.00
2018-11-26T04:20:21.894Z,2.10
2018-11-26T04:22:50.091Z,2.00
2018-11-26T04:25:18.338Z,2.00
2018-11-26T04:27:46.582Z,2.00
2018-11-26T04:30:14.858Z,1.90
2018-11-26T04:32:43.156Z,1.90
2018-11-26T04:35:11.448Z,2.00
2018-11-26T04:37:39.717Z,2.00
2018-11-26T04:40:09.716Z,2.00
2018-11-26T04:42:37.992Z,2.10
2018-11-26T04:45:07.758Z,2.10
2018-11-26T04:47:36.170Z,2.20
2018-11-26T04:50:05.431Z,2.20
2018-11-26T04:52:33.640Z,2.20
2018-11-26T04:55:01.832Z,2.20
2018-11-26T04:57:30.060Z,2.30
2018-11-26T04:59:59.065Z,2.30
2018-11-26T05:02:27.248Z,2.30
2018-11-26T05:04:55.523Z,2.40
2018-11-26T05:07:23.691Z,2.40
2018-11-26T05:09:51.877Z,2.50
2018-11-26T05:12:20.073Z,2.50
2018-11-26T05:14:48.243Z,2.50
2018-11-26T05:17:16.435Z,2.60
2018-11-26T05:19:44.646Z,2.60
2018-11-26T05:22:12.817Z,2.60
2018-11-26T05:24:41.009Z,2.60
2018-11-26T05:27:09.172Z,2.70
2018-11-26T05:29:37.391Z,2.70
2018-11-26T05:32:06.402Z,2.70
2018-11-26T05:34:34.570Z,2.70
2018-11-26T05:37:02.750Z,2.70
2018-11-26T05:39:30.907Z,2.80
2018-11-26T05:41:59.099Z,2.80
2018-11-26T05:44:27.359Z,2.80
2018-11-26T05:46:55.541Z,2.70
2018-11-26T05:49:23.717Z,2.70
2018-11-26T05:51:51.930Z,2.70
2018-11-26T05:54:20.186Z,2.70
2018-11-26T05:56:48.321Z,2.70
2018-11-26T05:59:16.537Z,2.70
2018-11-26T06:01:44.728Z,2.70
2018-11-26T06:04:12.881Z,2.70
2018-11-26T06:06:41.087Z,2.70
2018-11-26T06:09:09.969Z,2.70
2018-11-26T06:11:39.274Z,2.60
2018-11-26T06:14:07.489Z,2.60
2018-11-26T06:16:36.801Z,2.70
2018-11-26T06:19:04.947Z,2.70
2018-11-26T06:21:33.161Z,2.70
2018-11-26T06:24:01.333Z,2.70
2018-11-26T06:26:29.539Z,2.70
2018-11-26T06:28:58.298Z,2.70
2018-11-26T06:31:26.452Z,2.70
2018-11-26T06:33:54.688Z,2.80
2018-11-26T06:36:22.855Z,2.80
2018-11-26T06:38:51.638Z,2.80
2018-11-26T06:41:19.827Z,2.80
2018-11-26T06:43:48.011Z,2.80
2018-11-26T06:46:16.193Z,2.90
2018-11-26T06:48:45.351Z,2.90
2018-11-26T06:51:12.584Z,2.90
2018-11-26T06:53:40.764Z,3.00
2018-11-26T06:56:08.937Z,2.90
2018-11-26T06:58:37.066Z,3.00
2018-11-26T07:01:05.391Z,2.90
2018-11-26T07:03:33.621Z,2.90
2018-11-26T07:06:01.803Z,3.00
2018-11-26T07:08:30.026Z,3.00
2018-11-26T07:10:58.225Z,3.00
2018-11-26T07:13:26.359Z,3.10
2018-11-26T07:15:54.539Z,3.10
2018-11-26T07:18:22.695Z,3.10
2018-11-26T07:20:50.907Z,3.10
2018-11-26T07:23:19.114Z,3.20
2018-11-26T07:25:47.318Z,3.20
2018-11-26T07:28:15.491Z,3.20
2018-11-26T07:30:43.736Z,3.20
2018-11-26T07:33:11.916Z,3.20
2018-11-26T07:35:40.174Z,3.20
2018-11-26T07:38:08.311Z,3.20
2018-11-26T07:40:36.550Z,3.20
2018-11-26T07:43:09.217Z,3.20
2018-11-26T07:45:37.584Z,3.20
2018-11-26T07:48:06.542Z,3.20
2018-11-26T07:50:35.683Z,3.20
2018-11-26T07:53:03.954Z,3.30
2018-11-26T07:55:32.214Z,3.30
2018-11-26T07:58:00.398Z,3.30
2018-11-26T08:00:28.559Z,3.30
2018-11-26T08:02:56.764Z,3.30
2018-11-26T08:05:24.980Z,3.40
2018-11-26T08:07:53.140Z,3.40
2018-11-26T08:10:22.310Z,3.40
2018-11-26T08:12:51.555Z,3.50
2018-11-26T08:15:22.547Z,3.40
2018-11-26T08:17:49.955Z,3.40
2018-11-26T08:20:18.218Z,3.50
2018-11-26T08:22:46.422Z,3.40
2018-11-26T08:25:15.888Z,3.50
2018-11-26T08:27:44.679Z,3.50
2018-11-26T08:30:15.654Z,3.50
2018-11-26T08:32:44.678Z,3.60
2018-11-26T08:35:14.704Z,3.60
2018-11-26T08:37:48.301Z,3.60
2018-11-26T08:40:24.778Z,3.60
2018-11-26T08:42:58.284Z,3.60
2018-11-26T08:45:29.728Z,3.60
2018-11-26T08:48:05.540Z,3.60
2018-11-26T08:50:34.050Z,3.60
2018-11-26T08:53:02.196Z,3.60
2018-11-26T08:55:30.476Z,3.70
2018-11-26T08:57:58.744Z,3.80
2018-11-26T09:00:26.956Z,3.80
2018-11-26T09:03:00.250Z,3.90
2018-11-26T09:05:34.193Z,4.00
2018-11-26T09:08:02.545Z,3.90
2018-11-26T09:10:30.749Z,3.90
2018-11-26T09:12:58.980Z,3.90
2018-11-26T09:15:27.736Z,4.00
2018-11-26T09:17:55.913Z,4.00
2018-11-26T09:20:24.085Z,4.00
2018-11-26T09:22:52.315Z,4.10
2018-11-26T09:25:20.517Z,4.10
2018-11-26T09:27:48.775Z,4.10
2018-11-26T09:30:17.133Z,4.10
2018-11-26T09:32:45.445Z,4.20
2018-11-26T09:35:14.833Z,4.20
2018-11-26T09:37:43.271Z,4.20
2018-11-26T09:40:14.188Z,4.20
2018-11-26T09:42:42.439Z,4.20
2018-11-26T09:45:11.943Z,4.30
2018-11-26T09:47:40.185Z,4.40
2018-11-26T09:50:11.791Z,4.40
2018-11-26T09:52:40.037Z,4.40
2018-11-26T09:55:08.727Z,4.40
2018-11-26T09:57:36.940Z,4.40
2018-11-26T10:00:08.455Z,4.50
2018-11-26T10:02:36.670Z,4.50
2018-11-26T10:05:07.315Z,4.60
2018-11-26T10:07:35.519Z,4.60
2018-11-26T10:10:03.857Z,4.70
2018-11-26T10:12:32.109Z,4.70
2018-11-26T10:15:00.287Z,4.70
2018-11-26T10:17:28.473Z,4.70
2018-11-26T10:19:56.681Z,4.80
2018-11-26T10:22:24.858Z,4.80
2018-11-26T10:24:53.071Z,4.80
2018-11-26T10:27:21.275Z,4.80
2018-11-26T10:29:49.489Z,4.80
2018-11-26T10:32:17.728Z,4.70
2018-11-26T10:34:45.946Z,4.70
2018-11-26T10:37:14.403Z,4.70
2018-11-26T10:39:42.665Z,4.80
2018-11-26T10:42:10.869Z,4.80
2018-11-26T10:44:39.051Z,4.90
2018-11-26T10:47:07.230Z,4.90
2018-11-26T10:49:35.412Z,4.90
2018-11-26T10:52:03.594Z,4.90
2018-11-26T10:54:31.801Z,4.90
2018-11-26T10:57:00.032Z,4.90
2018-11-26T10:59:28.320Z,4.90
2018-11-26T11:02:06.617Z,4.90
2018-11-26T11:04:34.877Z,4.90
2018-11-26T11:07:03.047Z,4.90
2018-11-26T11:09:31.231Z,4.90
2018-11-26T11:11:59.462Z,4.90
2018-11-26T11:14:27.645Z,4.90
2018-11-26T11:16:55.860Z,4.90
2018-11-26T11:19:24.054Z,4.90
2018-11-26T11:21:52.278Z,4.90
2018-11-26T11:24:20.435Z,5.00
2018-11-26T11:26:48.621Z,5.00
2018-11-26T11:29:16.831Z,5.10
2018-11-26T11:31:45.039Z,5.10
2018-11-26T11:34:13.266Z,5.10
2018-11-26T11:36:41.597Z,5.00
2018-11-26T11:39:09.937Z,4.90
2018-11-26T11:41:38.150Z,4.90
2018-11-26T11:44:06.365Z,4.90
2018-11-26T11:46:34.495Z,4.80
2018-11-26T11:49:02.721Z,4.90
2018-11-26T11:51:30.869Z,5.00
2018-11-26T11:53:59.073Z,5.00
2018-11-26T11:56:27.247Z,5.00
2018-11-26T11:58:55.456Z,5.10
2018-11-26T12:01:23.637Z,5.10
2018-11-26T12:03:51.847Z,5.10
2018-11-26T12:06:20.073Z,5.10
2018-11-26T12:08:48.323Z,5.10
2018-11-26T12:11:16.669Z,5.10
2018-11-26T12:13:44.844Z,5.10
2018-11-26T12:16:13.093Z,5.20
2018-11-26T12:18:41.287Z,5.10
2018-11-26T12:21:09.477Z,5.10
2018-11-26T12:23:38.195Z,5.10
2018-11-26T12:26:06.406Z,5.10
2018-11-26T12:28:34.600Z,5.00
2018-11-26T12:31:02.781Z,5.00
2018-11-26T12:33:31.032Z,5.00
2018-11-26T12:35:59.207Z,5.00
2018-11-26T12:38:27.417Z,5.00
2018-11-26T12:40:55.575Z,5.00
2018-11-26T12:43:23.795Z,5.10
2018-11-26T12:45:51.966Z,5.10
2018-11-26T12:48:20.221Z,5.00
2018-11-26T12:50:48.391Z,5.00
2018-11-26T12:53:16.615Z,4.90
2018-11-26T12:55:44.818Z,5.00
2018-11-26T12:58:13.089Z,4.90
2018-11-26T13:00:41.284Z,4.80
2018-11-26T13:03:10.979Z,4.90
2018-11-26T13:05:39.223Z,4.80
2018-11-26T13:08:08.049Z,4.80
2018-11-26T13:10:36.311Z,4.80
2018-11-26T13:13:04.548Z,4.80
2018-11-26T13:15:32.777Z,4.80
2018-11-26T13:18:01.070Z,4.80
2018-11-26T13:20:30.323Z,4.80
2018-11-26T13:22:58.498Z,4.70
2018-11-26T13:25:30.594Z,4.70
2018-11-26T13:28:02.652Z,4.60
2018-11-26T13:30:37.104Z,4.50
2018-11-26T13:33:07.628Z,4.50
2018-11-26T13:35:35.857Z,4.50
2018-11-26T13:38:04.110Z,4.40
2018-11-26T13:40:32.405Z,4.40
2018-11-26T13:43:00.554Z,4.40
2018-11-26T13:45:30.807Z,4.40
2018-11-26T13:47:59.048Z,4.40
2018-11-26T13:50:32.400Z,4.40
2018-11-26T13:53:00.661Z,4.40
2018-11-26T13:55:28.840Z,4.30
2018-11-26T13:57:57.067Z,4.30
2018-11-26T14:00:25.265Z,4.40
2018-11-26T14:02:53.516Z,4.40
2018-11-26T14:05:21.686Z,4.30
2018-11-26T14:07:49.932Z,4.30
2018-11-26T14:10:21.106Z,4.20
2018-11-26T14:12:55.500Z,4.20
2018-11-26T14:15:23.707Z,4.20
2018-11-26T14:17:51.903Z,4.20
2018-11-26T14:20:20.075Z,4.20
2018-11-26T14:22:48.305Z,4.20
2018-11-26T14:25:17.532Z,4.20
2018-11-26T14:27:46.304Z,4.20
2018-11-26T14:30:18.641Z,4.20
2018-11-26T14:32:46.877Z,4.20
2018-11-26T14:35:15.059Z,4.20
2018-11-26T14:37:43.440Z,4.20
2018-11-26T14:40:19.217Z,4.20
2018-11-26T14:42:47.627Z,4.20
2018-11-26T14:45:15.678Z,4.10
2018-11-26T14:47:44.632Z,4.10
2018-11-26T14:50:14.845Z,4.10
2018-11-26T14:52:44.076Z,4.10
2018-11-26T14:55:19.495Z,4.10
2018-11-26T14:57:47.670Z,4.10
2018-11-26T15:00:17.046Z,4.10
2018-11-26T15:02:45.290Z,4.10
2018-11-26T15:05:13.668Z,4.10
2018-11-26T15:07:41.806Z,4.00
2018-11-26T15:10:11.163Z,4.00
2018-11-26T15:12:39.705Z,4.00
2018-11-26T15:15:10.932Z,4.00
2018-11-26T15:17:39.349Z,4.00
2018-11-26T15:20:12.847Z,4.00
2018-11-26T15:25:17.558Z,3.90
2018-11-26T15:27:45.765Z,3.90
2018-11-26T15:30:18.375Z,3.90
2018-11-26T15:32:46.692Z,3.90
2018-11-26T15:35:17.719Z,3.90
2018-11-26T15:37:45.996Z,3.90
2018-11-26T15:40:15.242Z,3.90
2018-11-26T15:42:43.580Z,3.80
2018-11-26T15:45:12.895Z,3.80
2018-11-26T15:47:41.072Z,3.80
2018-11-26T15:50:09.555Z,3.80
2018-11-26T15:52:37.814Z,3.80
2018-11-26T15:55:07.921Z,3.90
2018-11-26T15:57:36.181Z,3.80
2018-11-26T16:00:05.013Z,3.80
2018-11-26T16:02:33.292Z,3.80
2018-11-26T16:05:01.466Z,3.70
2018-11-26T16:07:29.708Z,3.70
2018-11-26T16:09:57.940Z,3.70
2018-11-26T16:12:26.135Z,3.70
2018-11-26T16:14:54.360Z,3.70
2018-11-26T16:17:22.600Z,3.70
2018-11-26T16:20:22.323Z,3.70
2018-11-26T16:22:50.604Z,3.70
2018-11-26T16:25:20.157Z,3.70
2018-11-26T16:27:48.412Z,3.70
2018-11-26T16:30:17.230Z,3.70
2018-11-26T16:32:46.860Z,3.70
2018-11-26T16:35:17.227Z,3.70
2018-11-26T16:37:45.582Z,3.70
2018-11-26T16:40:16.512Z,3.70
2018-11-26T16:42:44.933Z,3.60
2018-11-26T16:45:18.074Z,3.70
2018-11-26T16:47:47.515Z,3.60
2018-11-26T16:50:16.626Z,3.70
2018-11-26T16:52:44.970Z,3.60
2018-11-26T16:55:14.737Z,3.60
2018-11-26T16:57:43.030Z,3.50
2018-11-26T17:00:14.673Z,3.60
2018-11-26T17:02:42.961Z,3.50
2018-11-26T17:05:12.686Z,3.50
2018-11-26T17:07:40.939Z,3.60
2018-11-26T17:10:09.729Z,3.60
2018-11-26T17:12:38.109Z,3.60
2018-11-26T17:15:08.474Z,3.60
2018-11-26T17:17:36.643Z,3.60
2018-11-26T17:20:05.249Z,3.60
2018-11-26T17:22:33.423Z,3.60
2018-11-26T17:25:01.607Z,3.60
2018-11-26T17:27:29.763Z,3.60
2018-11-26T17:29:57.973Z,3.60
2018-11-26T17:32:26.205Z,3.60
2018-11-26T17:34:54.405Z,3.60
2018-11-26T17:37:22.591Z,3.60
2018-11-26T17:39:50.745Z,3.60
2018-11-26T17:42:19.053Z,3.60
2018-11-26T17:44:47.231Z,3.60
2018-11-26T17:47:15.456Z,3.60
2018-11-26T17:49:43.623Z,3.60
2018-11-26T17:52:12.545Z,3.60
2018-11-26T17:54:40.758Z,3.60
2018-11-26T17:57:08.976Z,3.60
2018-11-26T17:59:37.195Z,3.60
2018-11-26T18:02:06.110Z,3.70
2018-11-26T18:04:34.313Z,3.60
2018-11-26T18:07:02.531Z,3.60
2018-11-26T18:09:30.789Z,3.60
2018-11-26T18:11:59.067Z,3.60
2018-11-26T18:14:27.271Z,3.60
2018-11-26T18:16:55.507Z,3.60
2018-11-26T18:19:23.721Z,3.60
2018-11-26T18:21:51.943Z,3.60
2018-11-26T18:24:20.113Z,3.60
2018-11-26T18:26:48.429Z,3.60
2018-11-26T18:29:18.537Z,3.60
2018-11-26T18:31:46.760Z,3.60
2018-11-26T18:34:14.949Z,3.60
2018-11-26T18:36:43.169Z,3.60
2018-11-26T18:39:12.244Z,3.60
2018-11-26T18:41:40.425Z,3.50
2018-11-26T18:44:08.635Z,3.60
2018-11-26T18:46:36.907Z,3.60
2018-11-26T18:49:05.120Z,3.60
2018-11-26T18:51:33.366Z,3.60
2018-11-26T18:54:01.686Z,3.60
2018-11-26T18:56:29.856Z,3.60
2018-11-26T18:58:58.084Z,3.60
2018-11-26T19:01:26.290Z,3.60
2018-11-26T19:03:54.494Z,3.60
2018-11-26T19:06:22.700Z,3.60
2018-11-26T19:08:50.982Z,3.60
2018-11-26T19:11:19.341Z,3.60
2018-11-26T19:14:09.610Z,3.60
2018-11-26T19:16:46.020Z,3.60
2018-11-26T19:19:14.257Z,3.60
2018-11-26T19:21:42.482Z,3.60
2018-11-26T19:24:10.751Z,3.50
2018-11-26T19:26:38.939Z,3.60
2018-11-26T19:29:07.315Z,3.60
2018-11-26T19:31:35.563Z,3.50
2018-11-26T19:34:03.755Z,3.50
2018-11-26T19:36:32.581Z,3.50
2018-11-26T19:39:00.811Z,3.50
2018-11-26T19:41:29.063Z,3.50
2018-11-26T19:43:57.417Z,3.50
2018-11-26T19:46:25.767Z,3.50
2018-11-26T19:48:54.105Z,3.50
2018-11-26T19:51:22.413Z,3.50
2018-11-26T19:53:50.724Z,3.50
2018-11-26T19:56:19.093Z,3.50
2018-11-26T19:58:47.350Z,3.50
2018-11-26T20:01:15.627Z,3.50
2018-11-26T20:03:46.475Z,3.50
2018-11-26T20:06:18.891Z,3.50
2018-11-26T20:08:50.887Z,3.50
2018-11-26T20:11:19.222Z,3.50
2018-11-26T20:13:47.567Z,3.50
2018-11-26T20:16:23.592Z,3.50
2018-11-26T20:18:51.922Z,3.50
2018-11-26T20:21:20.241Z,3.50
2018-11-26T20:23:48.558Z,3.40
2018-11-26T20:26:16.809Z,3.40
2018-11-26T20:28:45.163Z,3.40
2018-11-26T20:31:13.484Z,3.40
2018-11-26T20:33:42.516Z,3.50
2018-11-26T20:36:12.079Z,3.50
2018-11-26T20:38:40.397Z,3.50
2018-11-26T20:41:09.784Z,3.50
2018-11-26T20:43:38.053Z,3.50
2018-11-26T20:46:06.420Z,3.50
2018-11-26T20:48:34.938Z,3.50
2018-11-26T20:51:03.258Z,3.50
2018-11-26T20:53:31.582Z,3.40
2018-11-26T20:56:00.316Z,3.40
2018-11-26T20:58:28.569Z,3.30
2018-11-26T21:00:57.870Z,3.30
2018-11-26T21:03:29.501Z,3.20
2018-11-26T21:05:58.079Z,3.20
2018-11-26T21:08:26.330Z,3.10
2018-11-26T21:10:55.069Z,3.10
2018-11-26T21:13:23.479Z,3.00
2018-11-26T21:15:51.762Z,2.90
2018-11-26T21:18:20.152Z,2.90
2018-11-26T21:20:49.539Z,2.80
2018-11-26T21:23:21.112Z,2.80
2018-11-26T21:25:49.564Z,2.60
2018-11-26T21:28:17.877Z,2.60
2018-11-26T21:30:51.614Z,2.50
2018-11-26T21:33:14.686Z,2.50
2018-11-26T21:35:42.998Z,2.40
2018-11-26T21:38:11.863Z,2.30
2018-11-26T21:40:40.606Z,2.20
2018-11-26T21:43:09.706Z,2.10
2018-11-26T21:45:41.675Z,2.10
2018-11-26T21:48:10.298Z,2.00
2018-11-26T21:50:38.627Z,1.90
2018-11-26T21:53:07.444Z,1.80
2018-11-26T21:55:35.680Z,1.80
2018-11-26T21:58:03.974Z,1.80
2018-11-26T22:00:32.446Z,1.70
2018-11-26T22:03:06.866Z,1.70
2018-11-26T22:05:35.182Z,1.60
2018-11-26T22:08:03.411Z,1.60
2018-11-26T22:10:31.668Z,1.50
2018-11-26T22:12:59.931Z,1.40
2018-11-26T22:15:28.204Z,1.40
2018-11-26T22:17:56.393Z,1.30
2018-11-26T22:20:25.742Z,1.20
2018-11-26T22:22:54.018Z,1.20
2018-11-26T22:25:22.223Z,1.20
2018-11-26T22:27:50.669Z,1.10
2018-11-26T22:30:26.844Z,1.10
2018-11-26T22:32:55.060Z,1.00
2018-11-26T22:35:23.316Z,1.00
2018-11-26T22:37:51.607Z,1.00
2018-11-26T22:40:22.401Z,1.00
2018-11-26T22:42:50.887Z,1.00
2018-11-26T22:45:23.230Z,1.00
2018-11-26T22:48:09.258Z,0.90
2018-11-26T22:50:38.740Z,0.90
2018-11-26T22:53:08.070Z,0.90
2018-11-26T22:55:36.392Z,0.80
2018-11-26T22:58:05.322Z,0.80
2018-11-26T23:00:42.084Z,0.80
2018-11-26T23:03:11.562Z,0.80
2018-11-26T23:05:39.896Z,0.70
2018-11-26T23:08:08.262Z,0.70
2018-11-26T23:10:36.638Z,0.70
2018-11-26T23:13:05.124Z,0.60
2018-11-26T23:15:33.485Z,0.60
2018-11-26T23:18:01.831Z,0.60
2018-11-26T23:20:30.222Z,0.60
2018-11-26T23:22:58.614Z,0.50
2018-11-26T23:25:26.892Z,0.50
2018-11-26T23:27:55.153Z,0.50
2018-11-26T23:30:24.469Z,0.50
2018-11-26T23:32:57.140Z,0.50
2018-11-26T23:35:25.374Z,0.40
2018-11-26T23:37:53.749Z,0.40
2018-11-26T23:40:22.045Z,0.30
2018-11-26T23:42:50.376Z,0.30
2018-11-26T23:45:19.679Z,0.20
2018-11-26T23:47:47.947Z,0.20
2018-11-26T23:50:16.893Z,0.10
2018-11-26T23:52:45.627Z,0.10
2018-11-26T23:55:15.043Z,0.20
2018-11-26T23:57:43.346Z,0.10
